Aeroporto :
LOGIN :

Iscrizione | Disclaimer

   EN    FR    IT 

 










Sommario :    VFR   VFR Marginale   IFR   IFR Intensivo   IFR Molto Intensivo
Visibilità : 
Base nubi : 
>= 8 km
>= 3000ft
5 / 8 km
1000 / 3000 ft
1500m / 5 km
500 / 1000 ft
800 / 1500m
200 / 500 ft
< 800m
< 200 ft
Simboli :   Temporali  Nebbia  Neve Forte  Precipitazioni Forti  Vento > 20 kt
SIGMETs :   Varie  Temporali  Ghiacco  Turbolenza  Onda orograficha  Ceneri Vulcaniche







- Altitudine del aeroporto : 17 ft
- Codice IATA : GRQ


EHGG - Groningen Eelde

ULTIMO METAR :
  • 201555Z AUTO 06011KT 030V090 9999 NCD 21/03 Q1029 NOSIG

METARs OBSOLETI :
  • 201525Z AUTO 06011KT 030V090 9999 NCD 21/04 Q1029 NOSIG
  • 201455Z AUTO 06011KT 020V090 9999 NCD 22/05 Q1029 NOSIG
  • 201425Z AUTO 05011KT 010V090 9999 NCD 21/05 Q1030 NOSIG
  • 201355Z AUTO 05012KT 020V080 9999 NCD 21/05 Q1030 NOSIG
  • 201325Z AUTO 05011KT 010V080 9999 NCD 22/04 Q1030 NOSIG

TAF TAF EHGG
Valido dal 20 a 12 ore il 21 a 18 ore UTC


201114Z 2012/2118 08010KT CAVOK
BECMG 2020/2023 05005KT
Nessun NOTAM noto per questo aeroporto.



MetMap, La meteo Aeronautica in un colpo d'occhio ! - Copyright ORBIFLY Dicembre 2007 - Disclaimer

ORBIFLY MET'MAP TEAM :

Programmazione e sviluppo : Alexandra Zaïnal
Concezione e sviluppo : Baudouin d'Aumeries
Co-Programmazione e sviluppo : Marc-Olivier Méhu
Supporto tecnico e logistico : Manuel Goepfert
Aiuto per la traduzione : Arnaldo La Scala

Contatto : metmap@orbifly.com




FONTI E CREDITI :

   NOAA